createdAt,value
2023-05-12T00:00:19.313Z,100940.44
2023-05-12T00:02:46.528Z,100941.81
2023-05-12T00:05:13.617Z,100935.41
2023-05-12T00:07:40.674Z,100942.41
2023-05-12T00:10:08.134Z,100952.34
2023-05-12T00:12:35.199Z,100953.31
2023-05-12T00:15:02.246Z,100953.13
2023-05-12T00:17:29.261Z,100947.59
2023-05-12T00:19:56.309Z,100946.88
2023-05-12T00:22:23.293Z,100950.34
2023-05-12T00:24:50.278Z,100944.22
2023-05-12T00:27:17.259Z,100945.72
2023-05-12T00:29:44.678Z,100955.03
2023-05-12T00:32:11.719Z,100949.03
2023-05-12T00:34:38.711Z,100954.38
2023-05-12T00:37:06.468Z,100944.22
2023-05-12T00:39:33.454Z,100948.69
2023-05-12T00:42:00.542Z,100951.31
2023-05-12T00:44:27.538Z,100955.53
2023-05-12T00:46:55.356Z,100957.78
2023-05-12T00:49:22.533Z,100961.25
2023-05-12T00:51:50.062Z,100962.44
2023-05-12T00:54:17.515Z,100961.34
2023-05-12T00:56:44.597Z,100961.97
2023-05-12T00:59:11.727Z,100962.56
2023-05-12T01:01:38.867Z,100959.69
2023-05-12T01:04:06.438Z,100956.44
2023-05-12T01:06:54.315Z,100963.97
2023-05-12T01:09:21.524Z,100964.78
2023-05-12T01:11:48.553Z,100968.03
2023-05-12T01:14:15.797Z,100971.78
2023-05-12T01:16:53.640Z,100963.31
2023-05-12T01:19:54.019Z,100966.00
2023-05-12T01:22:21.351Z,100978.63
2023-05-12T01:24:54.690Z,100969.19
2023-05-12T01:27:25.909Z,100970.03
2023-05-12T01:29:54.808Z,100971.56
2023-05-12T01:32:22.325Z,100979.59
2023-05-12T01:34:50.381Z,100975.94
2023-05-12T01:37:17.496Z,100977.56
2023-05-12T01:39:44.825Z,100987.06
2023-05-12T01:42:12.061Z,100974.50
2023-05-12T01:44:39.067Z,100976.34
2023-05-12T01:47:09.878Z,100975.00
2023-05-12T01:49:37.804Z,100984.56
2023-05-12T01:52:05.453Z,100972.03
2023-05-12T01:54:32.486Z,100983.31
2023-05-12T01:56:59.473Z,100979.94
2023-05-12T01:59:27.440Z,100985.34
2023-05-12T02:01:54.769Z,100986.06
2023-05-12T02:04:21.800Z,100987.88
2023-05-12T02:06:48.965Z,100984.34
2023-05-12T02:09:16.059Z,100977.00
2023-05-12T02:11:43.064Z,100982.09
2023-05-12T02:14:10.124Z,100981.31
2023-05-12T02:16:37.183Z,100984.00
2023-05-12T02:19:04.380Z,100992.16
2023-05-12T02:21:31.486Z,100977.91
2023-05-12T02:23:58.551Z,100988.91
2023-05-12T02:26:25.625Z,100988.22
2023-05-12T02:28:52.628Z,100984.56
2023-05-12T02:31:19.677Z,100984.25
2023-05-12T02:33:46.715Z,100995.13
2023-05-12T02:36:13.814Z,100994.78
2023-05-12T02:38:41.285Z,101003.97
2023-05-12T02:41:08.379Z,101004.81
2023-05-12T02:43:35.498Z,101001.53
2023-05-12T02:46:02.780Z,101009.28
2023-05-12T02:48:29.820Z,101008.59
2023-05-12T02:50:57.380Z,101014.41
2023-05-12T02:53:24.513Z,101004.22
2023-05-12T02:55:51.651Z,101012.66
2023-05-12T02:58:18.709Z,101015.25
2023-05-12T03:00:46.127Z,101019.50
2023-05-12T03:03:14.532Z,101024.84
2023-05-12T03:05:41.660Z,101015.56
2023-05-12T03:08:08.665Z,101016.88
2023-05-12T03:10:36.036Z,101021.28
2023-05-12T03:13:03.186Z,101009.09
2023-05-12T03:15:30.238Z,101015.34
2023-05-12T03:17:57.241Z,101016.94
2023-05-12T03:20:24.383Z,101016.94
2023-05-12T03:22:51.453Z,101008.91
2023-05-12T03:25:18.473Z,101007.16
2023-05-12T03:27:45.614Z,101007.53
2023-05-12T03:30:13.387Z,101000.66
2023-05-12T03:32:40.616Z,101011.75
2023-05-12T03:35:08.284Z,101011.31
2023-05-12T03:37:35.361Z,101014.44
2023-05-12T03:40:02.367Z,101010.88
2023-05-12T03:42:29.324Z,101011.69
2023-05-12T03:44:56.316Z,101009.03
2023-05-12T03:47:23.504Z,101014.38
2023-05-12T03:49:50.672Z,101014.25
2023-05-12T03:52:17.769Z,101012.13
2023-05-12T03:54:44.785Z,101009.03
2023-05-12T03:57:12.998Z,101013.09
2023-05-12T03:59:40.052Z,101018.72
2023-05-12T04:02:11.736Z,101018.97
2023-05-12T04:04:38.815Z,101027.06
2023-05-12T04:07:05.959Z,101028.56
2023-05-12T04:09:33.319Z,101025.00
2023-05-12T04:12:00.318Z,101019.88
2023-05-12T04:14:39.100Z,101027.53
2023-05-12T04:17:09.617Z,101033.69
2023-05-12T04:19:36.711Z,101027.47
2023-05-12T04:22:03.786Z,101034.25
2023-05-12T04:24:31.345Z,101031.13
2023-05-12T04:26:58.497Z,101033.03
2023-05-12T04:29:25.507Z,101030.72
2023-05-12T04:31:54.834Z,101028.97
2023-05-12T04:34:21.885Z,101032.22
2023-05-12T04:36:48.934Z,101033.34
2023-05-12T04:39:16.056Z,101043.19
2023-05-12T04:41:43.064Z,101034.97
2023-05-12T04:44:10.077Z,101037.50
2023-05-12T04:46:37.107Z,101035.97
2023-05-12T04:49:04.636Z,101031.13
2023-05-12T04:51:32.252Z,101039.44
2023-05-12T04:53:59.218Z,101040.84
2023-05-12T04:56:26.207Z,101039.13
2023-05-12T04:58:53.222Z,101039.44
2023-05-12T05:01:20.401Z,101044.00
2023-05-12T05:03:47.565Z,101044.78
2023-05-12T05:06:14.726Z,101042.19
2023-05-12T05:08:41.825Z,101045.50
2023-05-12T05:11:08.871Z,101043.72
2023-05-12T05:13:35.898Z,101057.25
2023-05-12T05:16:03.057Z,101045.75
2023-05-12T05:18:30.281Z,101054.31
2023-05-12T05:20:58.829Z,101050.44
2023-05-12T05:23:26.799Z,101062.28
2023-05-12T05:25:53.929Z,101062.03
2023-05-12T05:28:20.944Z,101056.66
2023-05-12T05:30:48.025Z,101055.41
2023-05-12T05:33:15.076Z,101051.22
2023-05-12T05:35:42.571Z,101066.19
2023-05-12T05:38:09.652Z,101062.03
2023-05-12T05:40:49.321Z,101056.31
2023-05-12T05:43:19.765Z,101060.56
2023-05-12T05:45:47.259Z,101077.06
2023-05-12T05:48:14.213Z,101059.50
2023-05-12T05:50:41.453Z,101055.84
2023-05-12T05:53:08.437Z,101079.66
2023-05-12T05:55:35.521Z,101061.69
2023-05-12T05:58:02.514Z,101067.09
2023-05-12T06:00:29.513Z,101087.38
2023-05-12T06:02:56.705Z,101079.34
2023-05-12T06:05:23.841Z,101078.38
2023-05-12T06:07:50.803Z,101071.38
2023-05-12T06:10:18.027Z,101078.88
2023-05-12T06:12:45.192Z,101080.53
2023-05-12T06:15:12.705Z,101073.06
2023-05-12T06:17:39.856Z,101069.75
2023-05-12T06:20:08.193Z,101082.59
2023-05-12T06:22:35.314Z,101077.03
2023-05-12T06:25:02.689Z,101089.41
2023-05-12T06:27:30.014Z,101076.00
2023-05-12T06:29:56.986Z,101073.34
2023-05-12T06:32:23.977Z,101084.31
2023-05-12T06:34:51.062Z,101080.16
2023-05-12T06:37:18.218Z,101088.91
2023-05-12T06:39:45.227Z,101098.38
2023-05-12T06:42:12.268Z,101094.41
2023-05-12T06:44:41.203Z,101098.91
2023-05-12T06:47:09.283Z,101083.28
2023-05-12T06:49:38.046Z,101073.22
2023-05-12T06:52:07.974Z,101088.38
2023-05-12T06:54:35.017Z,101076.28
2023-05-12T06:57:01.986Z,101076.78
2023-05-12T06:59:29.048Z,101086.09
2023-05-12T07:01:56.098Z,101084.47
2023-05-12T07:04:23.448Z,101072.91
2023-05-12T07:06:52.216Z,101083.94
2023-05-12T07:09:19.227Z,101080.47
2023-05-12T07:11:46.890Z,101070.78
2023-05-12T07:14:13.841Z,101084.31
2023-05-12T07:16:40.877Z,101077.63
2023-05-12T07:19:09.094Z,101073.53
2023-05-12T07:21:37.227Z,101084.34
2023-05-12T07:24:06.124Z,101086.34
2023-05-12T07:26:33.498Z,101090.19
2023-05-12T07:29:01.088Z,101126.97
2023-05-12T07:31:28.730Z,101088.91
2023-05-12T07:33:56.287Z,101069.81
2023-05-12T07:36:23.468Z,101081.09
2023-05-12T07:38:50.462Z,101082.06
2023-05-12T07:41:18.110Z,101075.78
2023-05-12T07:43:45.843Z,101078.13
2023-05-12T07:46:12.919Z,101075.44
2023-05-12T07:48:40.658Z,101082.97
2023-05-12T07:51:08.934Z,101094.47
2023-05-12T07:53:36.100Z,101111.56
2023-05-12T07:56:03.293Z,101104.91
2023-05-12T07:58:30.334Z,101086.81
2023-05-12T08:01:00.190Z,101102.53
2023-05-12T08:03:27.597Z,101085.13
2023-05-12T08:05:54.709Z,101092.53
2023-05-12T08:08:21.795Z,101079.59
2023-05-12T08:10:48.775Z,101083.22
2023-05-12T08:13:15.823Z,101109.56
2023-05-12T08:15:42.960Z,101091.97
2023-05-12T08:18:10.105Z,101098.13
2023-05-12T08:20:37.247Z,101081.31
2023-05-12T08:23:04.266Z,101072.56
2023-05-12T08:25:31.421Z,101088.59
2023-05-12T08:27:59.842Z,101079.22
2023-05-12T08:30:27.557Z,101096.00
2023-05-12T08:32:56.658Z,101089.03
2023-05-12T08:35:26.557Z,101078.03
2023-05-12T08:37:53.654Z,101078.09
2023-05-12T08:40:25.066Z,101110.63
2023-05-12T08:43:12.345Z,101088.66
2023-05-12T08:45:41.361Z,101104.91
2023-05-12T08:48:11.402Z,101080.53
2023-05-12T08:50:41.227Z,101095.09
2023-05-12T08:53:12.301Z,101096.00
2023-05-12T08:55:46.065Z,101087.91
2023-05-12T08:58:21.498Z,101101.31
2023-05-12T09:00:54.856Z,101118.25
2023-05-12T09:03:23.409Z,101087.94
2023-05-12T09:05:50.599Z,101094.19
2023-05-12T09:08:18.194Z,101098.69
2023-05-12T09:10:45.998Z,101081.66
2023-05-12T09:13:37.571Z,101101.34
2023-05-12T09:16:07.821Z,101096.88
2023-05-12T09:18:58.715Z,101097.81
2023-05-12T09:21:27.011Z,101066.47
2023-05-12T09:23:57.330Z,101113.84
2023-05-12T09:26:26.450Z,101090.34
2023-05-12T09:29:06.651Z,101082.56
2023-05-12T09:31:34.078Z,101083.47
2023-05-12T09:34:02.393Z,101087.88
2023-05-12T09:36:29.443Z,101068.06
2023-05-12T09:39:07.354Z,101069.81
2023-05-12T09:41:38.645Z,101066.94
2023-05-12T09:44:06.813Z,101074.19
2023-05-12T09:46:34.264Z,101069.44
2023-05-12T09:49:03.729Z,101072.25
2023-05-12T09:51:31.231Z,101053.03
2023-05-12T09:53:59.104Z,101073.16
2023-05-12T09:56:29.719Z,101082.34
2023-05-12T09:58:57.834Z,101073.63
2023-05-12T10:01:26.816Z,101099.53
2023-05-12T10:03:59.158Z,101100.41
2023-05-12T10:06:42.864Z,101051.09
2023-05-12T10:09:25.887Z,101068.19
2023-05-12T10:11:54.172Z,101067.34
2023-05-12T10:14:23.529Z,101083.41
2023-05-12T10:16:52.050Z,101044.97
2023-05-12T10:19:20.222Z,101053.00
2023-05-12T10:21:47.783Z,101061.91
2023-05-12T10:24:18.185Z,101061.94
2023-05-12T10:26:45.529Z,101061.06
2023-05-12T10:29:14.050Z,101056.59
2023-05-12T10:31:42.533Z,101081.59
2023-05-12T10:34:21.599Z,101089.66
2023-05-12T10:36:51.340Z,101061.03
2023-05-12T10:39:19.513Z,101060.16
2023-05-12T10:41:46.585Z,101052.13
2023-05-12T10:44:13.709Z,101047.66
2023-05-12T10:46:42.003Z,101064.50
2023-05-12T10:49:12.914Z,101053.84
2023-05-12T10:51:51.133Z,101049.41
2023-05-12T10:54:25.388Z,101054.81
2023-05-12T10:56:57.521Z,101068.16
2023-05-12T10:59:27.196Z,101054.81
2023-05-12T11:02:20.302Z,101047.63
2023-05-12T11:04:55.855Z,101042.25
2023-05-12T11:07:30.605Z,101042.22
2023-05-12T11:10:01.654Z,101047.53
2023-05-12T11:12:33.174Z,101066.19
2023-05-12T11:15:03.402Z,101026.91
2023-05-12T11:17:30.732Z,101041.09
2023-05-12T11:19:58.234Z,101066.13
2023-05-12T11:22:25.420Z,101032.03
2023-05-12T11:24:53.207Z,101042.06
2023-05-12T11:27:23.101Z,101053.66
2023-05-12T11:30:02.847Z,101042.97
2023-05-12T11:32:30.417Z,101035.84
2023-05-12T11:35:11.930Z,101035.81
2023-05-12T11:37:41.052Z,101028.75
2023-05-12T11:40:20.982Z,101022.59
2023-05-12T11:42:55.893Z,101033.31
2023-05-12T11:45:30.623Z,101048.56
2023-05-12T11:48:14.848Z,101026.19
2023-05-12T11:50:46.869Z,101024.34
2023-05-12T11:53:17.550Z,101033.31
2023-05-12T11:55:56.391Z,101031.50
2023-05-12T11:58:30.697Z,101016.34
2023-05-12T12:01:10.030Z,101018.97
2023-05-12T12:03:50.039Z,101039.53
2023-05-12T12:06:19.525Z,101038.56
2023-05-12T12:09:02.710Z,101018.09
2023-05-12T12:11:30.845Z,101012.72
2023-05-12T12:13:58.217Z,101038.69
2023-05-12T12:16:27.359Z,101025.25
2023-05-12T12:18:54.929Z,101032.31
2023-05-12T12:21:26.916Z,101036.78
2023-05-12T12:23:53.888Z,101021.59
2023-05-12T12:26:21.657Z,101046.44
2023-05-12T12:28:49.249Z,101022.25
2023-05-12T12:31:16.750Z,101025.00
2023-05-12T12:33:43.956Z,101042.03
2023-05-12T12:36:10.999Z,101022.38
2023-05-12T12:38:38.101Z,101009.97
2023-05-12T12:41:06.428Z,101031.53
2023-05-12T12:43:33.686Z,101027.91
2023-05-12T12:46:00.916Z,101011.75
2023-05-12T12:48:28.911Z,101010.03
2023-05-12T12:50:56.409Z,101004.59
2023-05-12T12:53:23.714Z,101028.81
2023-05-12T12:55:51.219Z,101012.66
2023-05-12T12:58:18.203Z,101020.69
2023-05-12T13:00:45.544Z,100990.34
2023-05-12T13:03:12.731Z,101011.81
2023-05-12T13:05:39.763Z,101020.66
2023-05-12T13:08:07.317Z,101000.03
2023-05-12T13:10:34.924Z,101011.63
2023-05-12T13:13:02.117Z,101006.22
2023-05-12T13:15:29.571Z,101008.13
2023-05-12T13:17:56.707Z,101015.25
2023-05-12T13:20:23.845Z,101011.72
2023-05-12T13:22:50.817Z,100998.25
2023-05-12T13:25:18.264Z,100989.38
2023-05-12T13:27:45.275Z,100979.56
2023-05-12T13:30:13.940Z,100962.63
2023-05-12T13:32:41.618Z,100997.50
2023-05-12T13:35:09.379Z,101001.09
2023-05-12T13:37:37.540Z,100985.88
2023-05-12T13:40:05.060Z,100969.81
2023-05-12T13:42:32.524Z,100975.13
2023-05-12T13:44:59.564Z,100994.81
2023-05-12T13:47:27.021Z,100976.94
2023-05-12T13:49:54.194Z,100960.81
2023-05-12T13:52:21.172Z,101018.09
2023-05-12T13:54:48.257Z,100958.13
2023-05-12T13:57:15.241Z,100959.06
2023-05-12T13:59:42.208Z,100967.09
2023-05-12T14:02:11.947Z,100945.66
2023-05-12T14:04:38.948Z,100954.59
2023-05-12T14:07:08.314Z,100962.63
2023-05-12T14:09:35.667Z,100953.63
2023-05-12T14:12:04.437Z,100972.44
2023-05-12T14:14:31.616Z,100951.00
2023-05-12T14:16:58.646Z,100964.34
2023-05-12T14:19:25.745Z,100964.34
2023-05-12T14:21:52.811Z,100964.41
2023-05-12T14:24:20.003Z,100959.06
2023-05-12T14:26:46.973Z,100951.00
2023-05-12T14:29:14.000Z,100950.09
2023-05-12T14:31:41.126Z,100954.56
2023-05-12T14:34:09.271Z,100962.63
2023-05-12T14:36:36.434Z,100968.88
2023-05-12T14:39:03.802Z,100947.34
2023-05-12T14:41:30.979Z,100967.97
2023-05-12T14:43:58.660Z,100952.78
2023-05-12T14:46:25.903Z,100949.19
2023-05-12T14:48:53.078Z,100969.78
2023-05-12T14:51:20.086Z,100961.72
2023-05-12T14:53:47.132Z,100966.19
2023-05-12T14:56:14.203Z,100949.22
2023-05-12T14:58:41.190Z,100950.97
2023-05-12T15:01:09.467Z,100948.31
2023-05-12T15:03:36.919Z,100953.69
2023-05-12T15:06:07.634Z,100954.56
2023-05-12T15:08:35.332Z,100947.41
2023-05-12T15:11:02.320Z,100958.13
2023-05-12T15:13:29.415Z,100952.78
2023-05-12T15:15:57.091Z,100950.09
2023-05-12T15:18:24.516Z,100964.41
2023-05-12T15:20:52.037Z,100954.56
2023-05-12T15:23:19.060Z,100943.81
2023-05-12T15:25:46.106Z,100955.47
2023-05-12T15:28:13.141Z,100976.06
2023-05-12T15:30:40.237Z,100945.63
2023-05-12T15:33:07.380Z,100959.94
2023-05-12T15:35:34.626Z,100959.91
2023-05-12T15:38:01.640Z,100955.41
2023-05-12T15:40:30.843Z,100949.13
2023-05-12T15:42:58.056Z,100958.91
2023-05-12T15:45:25.129Z,100951.81
2023-05-12T15:47:52.213Z,100951.81
2023-05-12T15:50:22.691Z,100942.03
2023-05-12T15:52:50.201Z,100960.72
2023-05-12T15:55:17.573Z,100956.25
2023-05-12T15:57:44.786Z,100957.16
2023-05-12T16:00:12.842Z,100942.88
2023-05-12T16:02:40.290Z,100951.78
2023-05-12T16:05:07.927Z,100953.56
2023-05-12T16:07:35.284Z,100945.53
2023-05-12T16:10:03.432Z,100945.59
2023-05-12T16:12:30.766Z,100948.25
2023-05-12T16:14:57.820Z,100950.84
2023-05-12T16:17:24.982Z,100934.75
2023-05-12T16:19:53.652Z,100951.81
2023-05-12T16:22:20.704Z,100947.34
2023-05-12T16:24:48.003Z,100933.03
2023-05-12T16:27:15.320Z,100941.09
2023-05-12T16:29:45.980Z,100941.09
2023-05-12T16:32:13.119Z,100938.34
2023-05-12T16:34:40.445Z,100950.84
2023-05-12T16:37:07.630Z,100966.81
2023-05-12T16:39:35.976Z,100951.72
2023-05-12T16:42:03.557Z,100950.75
2023-05-12T16:44:30.618Z,100953.50
2023-05-12T16:46:57.664Z,100949.84
2023-05-12T16:49:24.677Z,100948.16
2023-05-12T16:51:51.680Z,100947.13
2023-05-12T16:54:18.771Z,100956.97
2023-05-12T16:56:45.976Z,100948.88
2023-05-12T16:59:13.011Z,100956.09
2023-05-12T17:01:40.115Z,100956.13
2023-05-12T17:04:08.018Z,100946.28
2023-05-12T17:06:35.101Z,100945.31
2023-05-12T17:09:02.130Z,100944.50
2023-05-12T17:11:29.234Z,100951.66
2023-05-12T17:13:56.240Z,100957.72
2023-05-12T17:16:23.283Z,100955.09
2023-05-12T17:21:20.333Z,100966.69
2023-05-12T17:23:47.672Z,100964.81
2023-05-12T17:26:14.801Z,100964.03
2023-05-12T17:28:42.381Z,100967.38
2023-05-12T17:31:09.419Z,100964.81
2023-05-12T17:33:37.011Z,100962.13
2023-05-12T17:36:12.259Z,100959.44
2023-05-12T17:38:41.273Z,100968.38
2023-05-12T17:41:08.449Z,100969.13
2023-05-12T17:43:35.558Z,100970.06
2023-05-12T17:46:04.119Z,100970.09
2023-05-12T17:48:33.370Z,100969.13
2023-05-12T17:51:02.261Z,100970.03
2023-05-12T17:53:31.205Z,100974.38
2023-05-12T17:55:59.260Z,100977.09
2023-05-12T17:58:26.523Z,100979.50
2023-05-12T18:00:53.751Z,100978.66
2023-05-12T18:03:24.028Z,100979.50
2023-05-12T18:05:53.307Z,100984.06
2023-05-12T18:08:20.681Z,100983.19
2023-05-12T18:10:47.987Z,100988.47
2023-05-12T18:13:15.582Z,100982.00
2023-05-12T18:15:43.157Z,100993.59
2023-05-12T18:18:10.807Z,100999.88
2023-05-12T18:20:38.218Z,101000.56
2023-05-12T18:23:05.342Z,101002.25
2023-05-12T18:25:32.363Z,101007.63
2023-05-12T18:27:59.368Z,101012.25
2023-05-12T18:30:26.396Z,101010.13
2023-05-12T18:32:53.699Z,101006.56
2023-05-12T18:35:20.968Z,101012.03
2023-05-12T18:37:48.188Z,101014.59
2023-05-12T18:40:15.263Z,101012.59
2023-05-12T18:42:42.681Z,101021.53
2023-05-12T18:45:10.290Z,101018.75
2023-05-12T18:47:37.529Z,101021.28
2023-05-12T18:50:05.406Z,101018.69
2023-05-12T18:52:32.459Z,101015.94
2023-05-12T18:54:59.725Z,101018.31
2023-05-12T18:57:26.836Z,101024.38
2023-05-12T18:59:53.908Z,101022.59
2023-05-12T19:02:20.905Z,101017.25
2023-05-12T19:04:48.466Z,101023.44
2023-05-12T19:07:15.843Z,101028.00
2023-05-12T19:09:44.090Z,101022.59
2023-05-12T19:12:11.849Z,101023.47
2023-05-12T19:14:40.144Z,101021.59
2023-05-12T19:17:07.770Z,101029.53
2023-05-12T19:19:35.310Z,101025.91
2023-05-12T19:22:04.151Z,101037.25
2023-05-12T19:24:31.224Z,101038.03
2023-05-12T19:26:58.219Z,101032.75
2023-05-12T19:29:25.370Z,101038.81
2023-05-12T19:31:53.240Z,101033.63
2023-05-12T19:34:20.686Z,101040.69
2023-05-12T19:36:47.963Z,101044.22
2023-05-12T19:39:15.070Z,101043.22
2023-05-12T19:41:42.106Z,101044.00
2023-05-12T19:44:09.192Z,101045.72
2023-05-12T19:46:36.672Z,101048.38
2023-05-12T19:49:05.889Z,101053.50
2023-05-12T19:51:33.199Z,101043.44
2023-05-12T19:54:01.961Z,101042.53
2023-05-12T19:56:30.346Z,101040.69
2023-05-12T19:58:57.328Z,101045.97
2023-05-12T20:01:24.708Z,101043.72
2023-05-12T20:03:54.149Z,101047.31
2023-05-12T20:06:22.474Z,101053.47
2023-05-12T20:08:49.573Z,101047.38
2023-05-12T20:11:16.582Z,101049.03
2023-05-12T20:13:43.609Z,101050.06
2023-05-12T20:16:10.736Z,101054.25
2023-05-12T20:18:37.812Z,101053.00
2023-05-12T20:21:04.940Z,101051.09
2023-05-12T20:23:33.092Z,101051.88
2023-05-12T20:26:00.275Z,101051.09
2023-05-12T20:28:28.298Z,101042.28
2023-05-12T20:30:55.360Z,101055.47
2023-05-12T20:33:22.516Z,101051.50
2023-05-12T20:35:49.540Z,101043.50
2023-05-12T20:38:16.774Z,101041.75
2023-05-12T20:40:43.780Z,101049.94
2023-05-12T20:43:10.837Z,101045.91
2023-05-12T20:45:37.938Z,101054.00
2023-05-12T20:48:05.255Z,101052.06
2023-05-12T20:50:32.274Z,101058.31
2023-05-12T20:52:59.560Z,101051.13
2023-05-12T20:55:26.557Z,101053.72
2023-05-12T20:57:53.899Z,101051.97
2023-05-12T21:00:21.658Z,101054.63
2023-05-12T21:02:52.132Z,101044.75
2023-05-12T21:05:19.661Z,101053.63
2023-05-12T21:07:46.854Z,101051.72
2023-05-12T21:10:13.806Z,101056.75
2023-05-12T21:12:40.947Z,101064.50
2023-05-12T21:15:10.522Z,101059.91
2023-05-12T21:17:39.387Z,101058.31
2023-05-12T21:20:10.157Z,101058.19
2023-05-12T21:22:38.261Z,101058.97
2023-05-12T21:25:06.190Z,101058.28
2023-05-12T21:27:33.232Z,101063.53
2023-05-12T21:30:00.296Z,101062.53
2023-05-12T21:32:27.920Z,101060.91
2023-05-12T21:34:55.466Z,101062.53
2023-05-12T21:37:22.488Z,101064.25
2023-05-12T21:39:49.446Z,101068.75
2023-05-12T21:42:16.386Z,101066.09
2023-05-12T21:44:43.436Z,101066.06
2023-05-12T21:47:10.547Z,101072.72
2023-05-12T21:49:37.517Z,101080.59
2023-05-12T21:52:04.788Z,101081.31
2023-05-12T21:54:34.871Z,101085.53
2023-05-12T21:57:02.869Z,101082.75
2023-05-12T21:59:30.645Z,101085.66
2023-05-12T22:01:57.885Z,101085.88
2023-05-12T22:04:24.962Z,101083.34
2023-05-12T22:06:52.035Z,101093.81
2023-05-12T22:09:20.377Z,101087.47
2023-05-12T22:11:47.583Z,101081.84
2023-05-12T22:14:14.676Z,101081.44
2023-05-12T22:16:42.740Z,101079.28
2023-05-12T22:19:10.373Z,101075.16
2023-05-12T22:21:37.524Z,101089.28
2023-05-12T22:24:05.076Z,101082.94
2023-05-12T22:26:32.853Z,101084.94
2023-05-12T22:28:59.844Z,101089.88
2023-05-12T22:31:27.025Z,101087.19
2023-05-12T22:33:54.065Z,101085.50
2023-05-12T22:36:21.535Z,101080.84
2023-05-12T22:38:48.686Z,101085.38
2023-05-12T22:41:15.848Z,101086.19
2023-05-12T22:43:42.872Z,101082.66
2023-05-12T22:46:09.962Z,101078.50
2023-05-12T22:48:39.500Z,101078.88
2023-05-12T22:51:07.100Z,101080.47
2023-05-12T22:53:36.605Z,101084.72
2023-05-12T22:56:04.728Z,101077.69
2023-05-12T22:58:31.728Z,101081.09
2023-05-12T23:01:00.374Z,101080.38
2023-05-12T23:03:27.525Z,101079.25
2023-05-12T23:05:54.518Z,101081.22
2023-05-12T23:08:21.644Z,101078.38
2023-05-12T23:10:48.667Z,101085.34
2023-05-12T23:13:15.795Z,101078.56
2023-05-12T23:15:42.812Z,101077.88
2023-05-12T23:18:09.863Z,101075.31
2023-05-12T23:20:36.889Z,101083.69
2023-05-12T23:23:03.908Z,101078.53
2023-05-12T23:25:31.779Z,101082.22
2023-05-12T23:27:58.808Z,101082.59
2023-05-12T23:30:25.932Z,101083.75
2023-05-12T23:32:53.071Z,101075.81
2023-05-12T23:35:20.253Z,101081.66
2023-05-12T23:37:47.572Z,101073.69
2023-05-12T23:40:14.525Z,101077.84
2023-05-12T23:42:41.661Z,101081.59
2023-05-12T23:45:09.345Z,101071.97
2023-05-12T23:47:36.435Z,101083.94
2023-05-12T23:50:03.800Z,101069.78
2023-05-12T23:52:30.934Z,101072.81
2023-05-12T23:54:58.014Z,101064.09
2023-05-12T23:57:25.034Z,101067.66
2023-05-12T23:59:52.064Z,101071.38
